createdAt,value
2023-03-04T00:02:04.615Z,70.10
2023-03-04T00:12:10.108Z,70.47
2023-03-04T00:22:16.708Z,70.48
2023-03-04T00:32:22.335Z,70.47
2023-03-04T00:42:28.117Z,70.82
2023-03-04T00:52:33.969Z,70.69
2023-03-04T01:02:39.763Z,70.37
2023-03-04T01:12:46.133Z,70.25
2023-03-04T01:22:51.823Z,70.42
2023-03-04T01:32:57.785Z,70.40
2023-03-04T01:43:03.589Z,70.18
2023-03-04T01:53:09.562Z,70.01
2023-03-04T02:03:15.306Z,70.03
2023-03-04T02:13:21.083Z,70.11
2023-03-04T02:23:27.048Z,70.57
2023-03-04T02:33:33.264Z,70.52
2023-03-04T02:43:39.404Z,70.08
2023-03-04T02:53:45.007Z,69.93
2023-03-04T03:03:51.012Z,70.09
2023-03-04T03:13:56.786Z,70.15
2023-03-04T03:24:02.573Z,70.39
2023-03-04T03:34:08.545Z,70.20
2023-03-04T03:44:14.924Z,70.14
2023-03-04T03:54:21.382Z,70.13
2023-03-04T04:04:28.044Z,70.31
2023-03-04T04:14:34.222Z,70.36
2023-03-04T04:24:40.360Z,70.19
2023-03-04T04:34:46.655Z,70.52
2023-03-04T04:44:52.919Z,70.26
2023-03-04T04:54:59.663Z,70.18
2023-03-04T05:05:06.467Z,70.35
2023-03-04T05:15:12.777Z,70.00
2023-03-04T05:25:18.918Z,69.92
2023-03-04T05:35:27.265Z,69.80
2023-03-04T05:45:35.310Z,69.77
2023-03-04T05:55:42.045Z,69.92
2023-03-04T06:05:48.483Z,70.02
2023-03-04T06:15:55.169Z,69.82
2023-03-04T06:26:01.807Z,69.89
2023-03-04T06:36:08.245Z,69.96
2023-03-04T06:46:14.575Z,69.86
2023-03-04T06:56:21.365Z,69.82
2023-03-04T07:06:27.904Z,69.91
2023-03-04T07:16:34.712Z,69.75
2023-03-04T07:26:41.360Z,69.77
2023-03-04T07:36:47.795Z,69.94
2023-03-04T07:46:54.189Z,69.87
2023-03-04T07:57:00.903Z,69.72
2023-03-04T08:07:07.588Z,69.75
2023-03-04T08:17:13.738Z,69.93
2023-03-04T08:27:19.728Z,70.03
2023-03-04T08:37:26.351Z,70.90
2023-03-04T08:47:32.806Z,70.29
2023-03-04T08:57:38.397Z,69.75
2023-03-04T09:07:44.676Z,69.44
2023-03-04T09:17:49.553Z,64.79
2023-03-04T09:27:53.544Z,64.65
2023-03-04T09:38:00.155Z,64.10
2023-03-04T09:48:07.968Z,63.17
2023-03-04T09:58:16.226Z,61.74
2023-03-04T10:08:23.307Z,61.58
2023-03-04T10:18:29.284Z,61.81
2023-03-04T10:28:35.284Z,62.00
2023-03-04T10:38:41.801Z,62.27
2023-03-04T10:48:47.889Z,63.37
2023-03-04T10:58:54.517Z,63.61
2023-03-04T11:09:00.407Z,63.95
2023-03-04T11:19:06.957Z,64.66
2023-03-04T11:29:13.372Z,64.65
2023-03-04T11:39:19.305Z,64.89
2023-03-04T11:49:25.388Z,65.15
2023-03-04T11:59:31.363Z,65.40
2023-03-04T12:09:37.283Z,65.56
2023-03-04T12:19:43.120Z,65.79
2023-03-04T12:29:48.893Z,65.82
2023-03-04T12:39:55.161Z,65.93
2023-03-04T12:50:01.300Z,65.94
2023-03-04T13:00:07.457Z,65.38
2023-03-04T13:10:13.797Z,65.79
2023-03-04T13:20:20.117Z,65.99
2023-03-04T13:30:26.696Z,66.07
2023-03-04T13:40:32.932Z,66.09
2023-03-04T13:50:39.369Z,66.19
2023-03-04T14:00:46.112Z,66.22
2023-03-04T14:10:53.223Z,66.22
2023-03-04T14:21:00.119Z,66.32
2023-03-04T14:31:06.073Z,66.34
2023-03-04T14:41:12.516Z,66.30
2023-03-04T14:51:19.033Z,66.21
2023-03-04T15:01:25.533Z,66.25
2023-03-04T15:11:32.687Z,66.25
2023-03-04T15:21:39.347Z,66.33
2023-03-04T15:31:45.932Z,66.32
2023-03-04T15:41:51.635Z,66.31
2023-03-04T15:51:58.123Z,65.92
2023-03-04T16:02:04.520Z,65.87
2023-03-04T16:12:10.911Z,67.21
2023-03-04T16:22:17.609Z,67.12
2023-03-04T16:32:23.831Z,67.02
2023-03-04T16:42:29.344Z,67.14
2023-03-04T16:52:34.874Z,67.28
2023-03-04T17:02:40.240Z,67.49
2023-03-04T17:12:45.893Z,67.75
2023-03-04T17:22:51.868Z,67.74
2023-03-04T17:32:57.475Z,67.35
2023-03-04T17:43:02.924Z,67.78
2023-03-04T17:53:09.709Z,68.10
2023-03-04T18:03:15.568Z,68.44
2023-03-04T18:14:45.355Z,68.56
2023-03-04T18:27:30.185Z,68.70
2023-03-04T18:37:36.696Z,68.89
2023-03-04T18:47:42.186Z,69.13
2023-03-04T18:57:47.186Z,69.08
2023-03-04T19:07:52.445Z,69.22
2023-03-04T19:17:57.834Z,69.10
2023-03-04T19:28:04.863Z,69.05
2023-03-04T19:38:10.434Z,69.50
2023-03-04T19:48:16.227Z,69.53
2023-03-04T19:58:21.513Z,69.62
2023-03-04T20:08:28.806Z,69.44
2023-03-04T20:18:34.083Z,69.54
2023-03-04T20:28:41.595Z,69.79
2023-03-04T20:38:47.913Z,69.97
2023-03-04T20:48:53.757Z,70.02
2023-03-04T20:58:59.075Z,69.96
2023-03-04T21:09:05.520Z,69.91
2023-03-04T21:19:11.619Z,69.96
2023-03-04T21:29:19.102Z,69.92
2023-03-04T21:39:24.445Z,70.22
2023-03-04T21:49:30.195Z,70.35
2023-03-04T21:59:36.237Z,70.22
2023-03-04T22:09:41.755Z,70.15
2023-03-04T22:19:47.628Z,70.37
2023-03-04T22:29:53.046Z,70.50
2023-03-04T22:39:58.956Z,70.78
2023-03-04T22:50:04.492Z,71.05
2023-03-04T23:00:09.569Z,71.54
2023-03-04T23:10:15.056Z,71.77
2023-03-04T23:20:20.516Z,72.38
2023-03-04T23:30:27.088Z,72.49
2023-03-04T23:40:32.517Z,73.12
2023-03-04T23:50:38.114Z,73.37
